Time;durP1;ratioP1;P1;durP2;ratioP2;P2;SDS_P1;SDS_P2;PMS_P1;PMS_P2;Temp;Humidity;BMP_temperature;BMP_pressure;BME280_temperature;BME280_humidity;BME280_pressure;Samples;Min_cycle;Max_cycle;Signal;HPM_P1;HPM_P2
2022/05/18 00:00:18;;;;;;;11.47;3.53;;;18.30;52.50;;;;;;4979355;23;20472;-75
2022/05/18 00:02:45;;;;;;;6.40;3.00;;;18.20;52.60;;;;;;4938482;29;20910;-74
2022/05/18 00:05:13;;;;;;;3.97;3.00;;;18.20;53.00;;;;;;4938195;29;21024;-74
2022/05/18 00:07:41;;;;;;;2.77;2.57;;;18.10;53.40;;;;;;4938350;29;20475;-75
2022/05/18 00:10:09;;;;;;;4.33;2.83;;;18.00;53.90;;;;;;4938085;29;20459;-74
2022/05/18 00:12:43;;;;;;;7.00;3.10;;;17.90;54.30;;;;;;4938125;29;20600;-75
2022/05/18 00:15:11;;;;;;;3.70;3.27;;;17.90;54.80;;;;;;4938584;29;20445;-74
2022/05/18 00:17:37;;;;;;;3.40;2.80;;;17.80;54.90;;;;;;4938052;29;20462;-74
2022/05/18 00:20:06;;;;;;;6.30;3.57;;;17.80;55.40;;;;;;4937583;29;20457;-74
2022/05/18 00:22:33;;;;;;;3.50;3.00;;;17.80;55.80;;;;;;4938038;29;20433;-75
2022/05/18 00:25:02;;;;;;;4.60;2.63;;;17.70;56.40;;;;;;4938353;29;20528;-74
2022/05/18 00:27:29;;;;;;;3.37;3.00;;;17.70;56.50;;;;;;4938738;29;20436;-74
2022/05/18 00:29:56;;;;;;;3.40;3.10;;;17.70;56.50;;;;;;4938189;29;20481;-75
2022/05/18 00:32:22;;;;;;;7.03;3.43;;;17.60;56.40;;;;;;4938199;29;20452;-74
2022/05/18 00:34:49;;;;;;;4.83;3.20;;;17.60;56.40;;;;;;4938952;29;20440;-74
2022/05/18 00:37:16;;;;;;;3.50;3.20;;;17.60;56.40;;;;;;4938630;29;20485;-76
2022/05/18 00:39:43;;;;;;;4.63;3.43;;;17.60;56.40;;;;;;4947092;29;20477;-75
2022/05/18 00:42:19;;;;;;;4.63;2.90;;;17.60;56.40;;;;;;4957864;29;20454;-75
2022/05/18 00:44:46;;;;;;;5.07;3.30;;;17.50;56.30;;;;;;4943979;29;20863;-76
2022/05/18 00:47:14;;;;;;;4.27;3.20;;;17.50;56.30;;;;;;4955015;29;20455;-75
2022/05/18 00:49:45;;;;;;;3.70;3.20;;;17.50;56.30;;;;;;4949970;29;20512;-75
2022/05/18 00:52:15;;;;;;;5.20;3.33;;;17.50;56.30;;;;;;4938979;29;20481;-75
2022/05/18 00:54:43;;;;;;;4.40;3.23;;;17.50;56.30;;;;;;4939260;29;20439;-75
2022/05/18 00:57:14;;;;;;;4.90;3.87;;;17.40;56.20;;;;;;4938973;29;20454;-75
2022/05/18 00:59:47;;;;;;;3.67;3.30;;;17.40;56.20;;;;;;4936694;29;20539;-75
2022/05/18 01:02:14;;;;;;;3.70;3.40;;;17.50;56.30;;;;;;4937278;29;20450;-75
2022/05/18 01:04:43;;;;;;;4.77;2.90;;;17.50;56.30;;;;;;4937284;29;20456;-75
2022/05/18 01:07:14;;;;;;;3.10;2.80;;;17.50;56.30;;;;;;4937752;29;20442;-74
2022/05/18 01:09:43;;;;;;;4.20;2.83;;;17.60;55.00;;;;;;4936698;29;20506;-75
2022/05/18 01:12:12;;;;;;;5.30;2.90;;;17.70;55.00;;;;;;4936751;29;20458;-75
2022/05/18 01:14:44;;;;;;;2.93;2.73;;;17.70;54.00;;;;;;4937035;29;20898;-75
2022/05/18 01:17:12;;;;;;;5.80;3.20;;;17.70;53.90;;;;;;4937475;29;20441;-76
2022/05/18 01:19:44;;;;;;;3.43;2.90;;;17.70;54.00;;;;;;4936667;29;20449;-74
2022/05/18 01:22:18;;;;;;;3.20;2.60;;;17.70;53.90;;;;;;4937094;29;20447;-74
2022/05/18 01:24:55;;;;;;;5.50;3.70;;;17.70;53.50;;;;;;4937372;29;20854;-75
2022/05/18 01:27:23;;;;;;;3.83;3.50;;;17.70;53.90;;;;;;4938075;29;20478;-75
2022/05/18 01:29:51;;;;;;;5.10;3.23;;;17.70;53.60;;;;;;4948051;29;20491;-75
2022/05/18 01:32:18;;;;;;;4.07;2.87;;;17.60;53.70;;;;;;4942114;29;20458;-75
2022/05/18 01:34:45;;;;;;;3.53;2.90;;;17.60;53.80;;;;;;4944153;29;20851;-74
2022/05/18 01:37:14;;;;;;;3.30;3.00;;;17.70;53.40;;;;;;4936337;29;20944;-76
2022/05/18 01:39:45;;;;;;;3.10;2.90;;;17.70;53.00;;;;;;4936399;29;20987;-74
2022/05/18 01:42:22;;;;;;;3.40;3.07;;;17.70;53.10;;;;;;4936863;29;20501;-74
2022/05/18 01:44:50;;;;;;;4.17;2.60;;;17.60;53.20;;;;;;4937183;29;20959;-75
2022/05/18 01:47:17;;;;;;;4.47;3.00;;;17.60;53.40;;;;;;4937134;29;20754;-75
2022/05/18 01:49:45;;;;;;;3.30;2.80;;;17.60;53.90;;;;;;4937809;29;20537;-75
2022/05/18 01:52:12;;;;;;;3.53;3.07;;;17.40;54.40;;;;;;4936591;29;20437;-76
2022/05/18 01:54:42;;;;;;;3.13;2.93;;;17.40;55.00;;;;;;4936690;29;20521;-74
2022/05/18 01:57:10;;;;;;;4.83;3.53;;;17.30;56.00;;;;;;4936615;29;20799;-74
2022/05/18 01:59:37;;;;;;;4.20;3.37;;;17.20;56.00;;;;;;4936217;29;20486;-76
2022/05/18 02:02:10;;;;;;;2.83;2.63;;;17.20;56.00;;;;;;4936469;29;20521;-75
2022/05/18 02:04:36;;;;;;;4.20;3.30;;;17.00;55.80;;;;;;4937125;29;21021;-74
2022/05/18 02:07:04;;;;;;;3.23;3.00;;;16.90;56.70;;;;;;4936362;29;20458;-75
2022/05/18 02:09:31;;;;;;;3.57;3.33;;;16.90;57.30;;;;;;4935954;29;21011;-75
2022/05/18 02:11:58;;;;;;;3.80;3.40;;;16.80;57.80;;;;;;4936448;29;20453;-75
2022/05/18 02:14:26;;;;;;;4.27;3.17;;;16.90;57.60;;;;;;4936470;29;20433;-75
2022/05/18 02:16:53;;;;;;;3.40;3.10;;;16.80;58.00;;;;;;4936275;29;20921;-75
2022/05/18 02:19:22;;;;;;;4.00;3.40;;;16.70;58.20;;;;;;4936543;29;20445;-75
2022/05/18 02:21:49;;;;;;;3.57;3.27;;;16.70;58.60;;;;;;4935891;29;20513;-75
2022/05/18 02:24:17;;;;;;;3.63;3.17;;;16.70;58.60;;;;;;4937201;29;20494;-75
2022/05/18 02:26:43;;;;;;;4.63;3.37;;;16.70;58.90;;;;;;4936069;29;20958;-77
2022/05/18 02:29:11;;;;;;;5.60;3.50;;;16.70;58.90;;;;;;4935975;29;20468;-75
2022/05/18 02:31:38;;;;;;;4.73;3.27;;;16.60;59.00;;;;;;4935914;29;20454;-75
2022/05/18 02:34:05;;;;;;;3.83;3.50;;;16.60;59.30;;;;;;4936174;29;20440;-76
2022/05/18 02:36:34;;;;;;;3.70;3.40;;;16.60;59.40;;;;;;4936744;29;20574;-75
2022/05/18 02:39:01;;;;;;;3.70;3.40;;;16.50;59.50;;;;;;4936506;29;20489;-75
2022/05/18 02:41:27;;;;;;;4.50;3.63;;;16.50;59.90;;;;;;4935956;29;20523;-75
2022/05/18 02:43:54;;;;;;;4.60;3.50;;;16.40;60.30;;;;;;4936867;29;20451;-75
2022/05/18 02:46:23;;;;;;;3.40;3.10;;;16.40;60.40;;;;;;4938045;29;20534;-75
2022/05/18 02:48:51;;;;;;;4.27;3.23;;;16.40;60.30;;;;;;4936217;29;21036;-75
2022/05/18 02:51:19;;;;;;;3.40;3.10;;;16.30;60.30;;;;;;4936502;29;20513;-75
2022/05/18 02:53:47;;;;;;;5.80;3.37;;;16.30;60.50;;;;;;4936625;29;20458;-75
2022/05/18 02:56:17;;;;;;;3.93;3.20;;;16.30;60.90;;;;;;4936181;29;20914;-75
2022/05/18 02:58:46;;;;;;;3.93;3.50;;;16.20;61.20;;;;;;4936532;29;20534;-76
2022/05/18 03:01:15;;;;;;;4.37;3.50;;;16.30;61.20;;;;;;4939816;29;20458;-75
2022/05/18 03:03:44;;;;;;;5.07;3.80;;;16.20;61.40;;;;;;4953900;29;20424;-75
2022/05/18 03:06:12;;;;;;;4.40;4.00;;;16.20;61.40;;;;;;4948000;29;20465;-76
2022/05/18 03:08:41;;;;;;;5.07;3.33;;;16.20;61.70;;;;;;4949034;29;20449;-74
2022/05/18 03:11:10;;;;;;;3.60;3.30;;;16.20;61.80;;;;;;4943248;29;20433;-75
2022/05/18 03:13:36;;;;;;;3.70;3.40;;;16.20;62.00;;;;;;4935617;29;20918;-75
2022/05/18 03:16:04;;;;;;;3.60;3.30;;;16.10;61.80;;;;;;4935648;29;20513;-75
2022/05/18 03:18:31;;;;;;;3.63;3.20;;;16.10;62.40;;;;;;4935602;29;20542;-75
2022/05/18 03:23:43;;;;;;;5.70;3.30;;;16.10;62.30;;;;;;4935866;29;20578;-75
2022/05/18 03:26:13;;;;;;;3.50;3.20;;;16.10;62.20;;;;;;4940638;29;20442;-74
2022/05/18 03:28:42;;;;;;;5.03;3.70;;;16.10;62.10;;;;;;4953438;28;20447;-76
2022/05/18 03:31:09;;;;;;;3.80;3.27;;;16.10;62.10;;;;;;4948676;29;20802;-75
2022/05/18 03:33:37;;;;;;;4.17;3.67;;;16.00;62.10;;;;;;4947825;29;20461;-75
2022/05/18 03:36:07;;;;;;;5.20;3.10;;;16.00;62.50;;;;;;4940294;29;20450;-75
2022/05/18 03:38:35;;;;;;;4.80;3.27;;;16.10;62.00;;;;;;4939728;29;20518;-75
2022/05/18 03:41:01;;;;;;;3.70;3.33;;;16.10;61.50;;;;;;4939945;29;20453;-76
2022/05/18 03:43:30;;;;;;;3.70;3.40;;;16.10;61.80;;;;;;4939405;29;20485;-74
2022/05/18 03:45:58;;;;;;;5.77;3.50;;;16.20;60.70;;;;;;4939276;29;20454;-76
2022/05/18 03:48:25;;;;;;;5.83;4.37;;;16.30;59.90;;;;;;4939559;29;20656;-75
2022/05/18 03:50:55;;;;;;;4.30;3.90;;;16.40;59.30;;;;;;4938401;29;20500;-77
2022/05/18 03:53:21;;;;;;;4.07;3.60;;;16.40;59.30;;;;;;4938905;29;20533;-76
2022/05/18 03:55:48;;;;;;;5.77;3.97;;;16.40;59.40;;;;;;4938329;29;20432;-77
2022/05/18 03:58:16;;;;;;;3.73;3.27;;;16.30;60.60;;;;;;4938821;29;20437;-76
2022/05/18 04:00:47;;;;;;;4.00;3.40;;;16.30;59.90;;;;;;4937948;29;20520;-75
2022/05/18 04:03:16;;;;;;;4.00;3.60;;;16.30;60.10;;;;;;4938936;29;20556;-75
2022/05/18 04:05:43;;;;;;;5.07;4.23;;;16.30;60.30;;;;;;4938279;29;20545;-75
2022/05/18 04:08:12;;;;;;;4.10;3.70;;;16.30;60.20;;;;;;4938428;29;20488;-75
2022/05/18 04:10:39;;;;;;;3.60;3.27;;;16.30;60.40;;;;;;4937838;29;20567;-76
2022/05/18 04:13:07;;;;;;;5.70;3.27;;;16.40;59.60;;;;;;4937905;29;21024;-76
2022/05/18 04:15:34;;;;;;;5.43;3.50;;;16.50;59.40;;;;;;4938363;29;20509;-75
2022/05/18 04:18:02;;;;;;;5.20;3.60;;;16.60;58.70;;;;;;4937875;29;20509;-76
2022/05/18 04:20:29;;;;;;;3.60;3.30;;;16.70;57.20;;;;;;4937785;29;20564;-76
2022/05/18 04:22:56;;;;;;;4.20;3.53;;;16.90;56.30;;;;;;4937870;29;20727;-76
2022/05/18 04:25:26;;;;;;;4.40;3.50;;;17.00;55.80;;;;;;4938357;29;20459;-76
2022/05/18 04:27:53;;;;;;;3.70;3.40;;;17.20;56.00;;;;;;4937827;29;20444;-76
2022/05/18 04:30:22;;;;;;;4.57;3.57;;;17.40;54.30;;;;;;4937507;29;21028;-77
2022/05/18 04:32:49;;;;;;;3.93;3.37;;;17.60;52.60;;;;;;4936669;29;20527;-76
2022/05/18 04:35:19;;;;;;;3.07;2.87;;;17.70;52.30;;;;;;4938148;29;20476;-76
2022/05/18 04:37:46;;;;;;;4.63;3.10;;;18.00;51.70;;;;;;4938153;29;20438;-76
2022/05/18 04:40:13;;;;;;;4.30;3.57;;;18.20;49.60;;;;;;4937696;29;20478;-76
2022/05/18 04:42:40;;;;;;;4.03;3.50;;;18.30;49.70;;;;;;4937721;29;20937;-76
2022/05/18 04:45:10;;;;;;;3.53;3.23;;;18.30;49.10;;;;;;4937020;29;20951;-75
2022/05/18 04:47:37;;;;;;;5.50;3.47;;;18.50;48.40;;;;;;4937791;29;20943;-77
2022/05/18 04:50:05;;;;;;;6.30;3.57;;;18.70;48.10;;;;;;4937156;29;20593;-75
2022/05/18 04:52:33;;;;;;;3.73;3.30;;;18.80;47.70;;;;;;4937390;29;20460;-75
2022/05/18 04:55:00;;;;;;;5.33;3.27;;;19.30;48.20;;;;;;4937554;29;20444;-76
2022/05/18 04:57:27;;;;;;;4.00;3.17;;;19.80;46.20;;;;;;4937442;29;20443;-75
2022/05/18 04:59:54;;;;;;;3.53;3.00;;;20.40;43.70;;;;;;4937208;29;20547;-76
2022/05/18 05:02:21;;;;;;;6.20;3.00;;;20.40;43.80;;;;;;4937472;29;20441;-76
2022/05/18 05:04:47;;;;;;;5.53;3.40;;;20.90;42.60;;;;;;4938395;29;20641;-75
2022/05/18 05:07:14;;;;;;;3.60;3.30;;;21.00;42.30;;;;;;4937289;29;20494;-76
2022/05/18 05:09:43;;;;;;;6.57;2.80;;;20.90;42.60;;;;;;4937264;29;20502;-76
2022/05/18 05:12:10;;;;;;;3.70;3.30;;;21.00;42.80;;;;;;4937635;29;20466;-75
2022/05/18 05:14:38;;;;;;;4.43;2.90;;;21.20;42.10;;;;;;4937602;29;20463;-76
2022/05/18 05:17:06;;;;;;;4.40;2.90;;;21.20;42.20;;;;;;4937603;29;20581;-76
2022/05/18 05:19:33;;;;;;;3.40;2.80;;;21.80;40.50;;;;;;4938558;29;20997;-76
2022/05/18 05:21:59;;;;;;;3.83;3.10;;;21.90;40.60;;;;;;4949036;29;20520;-76
2022/05/18 05:24:26;;;;;;;3.50;2.63;;;22.00;40.70;;;;;;4955103;29;20472;-75
2022/05/18 05:26:54;;;;;;;5.37;3.47;;;21.70;40.40;;;;;;4949435;29;20465;-75
2022/05/18 05:29:22;;;;;;;3.57;2.70;;;21.50;40.20;;;;;;4952816;29;20478;-74
2022/05/18 05:31:49;;;;;;;7.10;3.17;;;21.70;40.40;;;;;;4945745;29;20463;-76
2022/05/18 05:34:17;;;;;;;3.83;3.43;;;22.10;40.60;;;;;;4937535;29;20544;-76
2022/05/18 05:36:44;;;;;;;5.70;2.90;;;22.20;39.50;;;;;;4937143;29;20468;-76
2022/05/18 05:39:11;;;;;;;3.53;3.17;;;22.10;39.40;;;;;;4936735;29;20529;-75
2022/05/18 05:41:38;;;;;;;3.20;2.80;;;21.70;40.40;;;;;;4937193;29;20462;-75
2022/05/18 05:44:07;;;;;;;5.60;3.00;;;21.70;40.40;;;;;;4936581;29;20462;-76
2022/05/18 05:46:33;;;;;;;5.13;3.50;;;22.20;39.10;;;;;;4937069;29;20450;-75
2022/05/18 05:49:00;;;;;;;3.00;2.70;;;23.20;37.50;;;;;;4936834;29;20521;-75
2022/05/18 05:51:27;;;;;;;6.17;2.83;;;23.60;35.70;;;;;;4936583;29;20505;-74
2022/05/18 05:53:54;;;;;;;4.80;3.10;;;24.00;35.20;;;;;;4936658;29;20462;-75
2022/05/18 05:56:22;;;;;;;2.97;2.77;;;23.50;35.90;;;;;;4935321;29;20946;-76
2022/05/18 05:58:49;;;;;;;5.10;3.03;;;23.50;36.30;;;;;;4936233;29;20460;-76
2022/05/18 06:01:19;;;;;;;4.17;2.80;;;24.50;34.40;;;;;;4937169;29;20505;-75
2022/05/18 06:03:47;;;;;;;4.10;2.80;;;25.60;32.20;;;;;;4936751;29;20461;-75
2022/05/18 06:06:14;;;;;;;3.73;2.57;;;26.30;30.00;;;;;;4936803;29;20462;-75
2022/05/18 06:08:41;;;;;;;5.27;2.77;;;26.30;29.10;;;;;;4937202;29;20485;-77
2022/05/18 06:11:10;;;;;;;10.10;3.07;;;26.60;29.30;;;;;;4937149;29;20490;-76
2022/05/18 06:13:37;;;;;;;3.80;2.83;;;26.90;28.70;;;;;;4936938;29;20533;-75
2022/05/18 06:16:05;;;;;;;4.90;3.53;;;27.30;28.00;;;;;;4936268;29;20480;-74
2022/05/18 06:18:35;;;;;;;3.47;2.47;;;27.30;27.80;;;;;;4936858;29;20469;-74
2022/05/18 06:21:02;;;;;;;4.37;3.10;;;26.20;29.60;;;;;;4935906;29;20934;-74
2022/05/18 06:23:30;;;;;;;2.87;2.67;;;26.20;29.00;;;;;;4936469;29;20461;-75
2022/05/18 06:26:06;;;;;;;4.83;3.07;;;26.60;28.60;;;;;;4936691;29;20832;-75
2022/05/18 06:28:36;;;;;;;3.70;3.10;;;26.30;29.10;;;;;;4936364;29;20460;-75
2022/05/18 06:31:03;;;;;;;5.80;2.90;;;26.60;28.50;;;;;;4936037;29;20852;-74
2022/05/18 06:33:30;;;;;;;4.97;2.87;;;26.40;29.00;;;;;;4935870;29;20474;-75
2022/05/18 06:36:01;;;;;;;3.30;2.73;;;26.50;28.70;;;;;;4936001;29;20471;-75
2022/05/18 06:38:28;;;;;;;5.00;3.40;;;26.10;29.40;;;;;;4935687;29;20457;-75
2022/05/18 06:43:42;;;;;;;3.13;2.83;;;26.60;28.90;;;;;;4936831;29;20403;-76
2022/05/18 06:46:10;;;;;;;3.43;3.13;;;26.40;29.30;;;;;;4936282;29;20438;-76
2022/05/18 06:48:39;;;;;;;7.80;3.10;;;26.50;29.20;;;;;;4936002;29;20431;-75
2022/05/18 06:51:08;;;;;;;3.70;3.20;;;26.30;29.30;;;;;;4936501;29;20488;-75
2022/05/18 06:53:35;;;;;;;3.67;3.30;;;25.90;30.00;;;;;;4936222;29;20440;-74
2022/05/18 06:56:03;;;;;;;6.83;3.93;;;25.30;30.90;;;;;;4942609;29;20513;-76
2022/05/18 06:58:29;;;;;;;4.00;3.53;;;24.90;32.50;;;;;;4938405;29;20595;-75
2022/05/18 07:00:56;;;;;;;4.57;3.27;;;24.20;33.50;;;;;;4937361;29;20577;-75
2022/05/18 07:03:23;;;;;;;4.00;3.60;;;24.10;33.50;;;;;;4938624;29;20428;-76
2022/05/18 07:05:50;;;;;;;3.60;3.00;;;23.90;33.60;;;;;;4940263;29;20862;-76
2022/05/18 07:08:19;;;;;;;4.17;3.67;;;23.80;35.20;;;;;;4940295;29;20468;-76
2022/05/18 07:10:45;;;;;;;5.07;3.77;;;23.60;34.30;;;;;;4936819;29;20501;-75
2022/05/18 07:13:17;;;;;;;9.87;3.43;;;23.70;34.50;;;;;;4936220;29;20492;-77
2022/05/18 07:15:44;;;;;;;4.40;3.30;;;23.20;34.90;;;;;;4935749;29;20539;-76
2022/05/18 07:18:11;;;;;;;6.30;3.30;;;23.00;35.80;;;;;;4935475;29;20469;-75
2022/05/18 07:20:38;;;;;;;15.00;5.00;;;23.10;36.40;;;;;;4935396;29;20458;-75
2022/05/18 07:23:05;;;;;;;4.63;3.40;;;23.20;36.00;;;;;;4936311;29;20786;-75
2022/05/18 07:25:34;;;;;;;4.33;3.60;;;23.40;35.40;;;;;;4935678;29;20946;-75
2022/05/18 07:28:01;;;;;;;5.40;3.63;;;23.50;35.00;;;;;;4935881;29;20473;-76
2022/05/18 07:30:28;;;;;;;4.00;3.10;;;23.50;35.10;;;;;;4935402;29;20505;-75
2022/05/18 07:32:55;;;;;;;10.20;3.70;;;23.20;35.70;;;;;;4935254;29;20470;-75
2022/05/18 07:35:23;;;;;;;3.23;2.80;;;23.30;35.90;;;;;;4935462;29;20511;-75
2022/05/18 07:37:50;;;;;;;6.20;3.47;;;23.40;36.00;;;;;;4936126;29;20947;-74
2022/05/18 07:40:17;;;;;;;4.57;3.67;;;23.70;35.90;;;;;;4937439;29;20489;-75
2022/05/18 07:42:45;;;;;;;4.93;3.20;;;23.90;35.00;;;;;;4944864;29;20457;-74
2022/05/18 07:45:11;;;;;;;5.20;3.50;;;24.00;34.60;;;;;;4952491;29;20489;-74
2022/05/18 07:47:38;;;;;;;4.20;3.10;;;24.00;34.50;;;;;;4953931;29;20500;-75
2022/05/18 07:50:06;;;;;;;7.00;3.10;;;24.20;33.80;;;;;;4949829;29;20873;-75
2022/05/18 07:52:34;;;;;;;4.90;2.80;;;24.40;34.20;;;;;;4943286;29;20433;-76
2022/05/18 07:55:00;;;;;;;11.70;3.47;;;24.40;32.60;;;;;;4935141;29;20458;-75
2022/05/18 07:57:27;;;;;;;4.63;3.10;;;24.30;32.50;;;;;;4934820;29;20766;-76
2022/05/18 07:59:59;;;;;;;3.40;3.10;;;24.50;32.70;;;;;;4933993;29;20472;-77
2022/05/18 08:02:27;;;;;;;4.30;3.27;;;24.80;31.40;;;;;;4934738;29;20557;-76
2022/05/18 08:04:53;;;;;;;4.00;2.70;;;25.10;31.70;;;;;;4934915;29;20441;-75
2022/05/18 08:07:20;;;;;;;6.10;3.33;;;25.00;33.10;;;;;;4935412;29;20450;-75
2022/05/18 08:15:18;;;;;;;5.73;3.40;;;25.30;30.80;;;;;;4935425;29;20436;-74
2022/05/18 08:17:45;;;;;;;3.80;3.40;;;25.40;31.00;;;;;;4935417;29;20433;-74
2022/05/18 08:20:15;;;;;;;3.90;3.03;;;25.20;31.40;;;;;;4937414;29;20966;-76
2022/05/18 08:22:42;;;;;;;3.30;3.00;;;25.30;30.80;;;;;;4937793;29;20460;-75
2022/05/18 08:25:10;;;;;;;4.27;3.50;;;25.60;30.40;;;;;;4938495;29;20451;-75
2022/05/18 08:27:41;;;;;;;4.20;3.50;;;25.60;30.40;;;;;;4937930;29;20450;-75
2022/05/18 08:30:11;;;;;;;4.03;3.70;;;25.70;30.20;;;;;;4937516;29;20482;-75
2022/05/18 08:32:39;;;;;;;85.63;8.57;;;25.80;29.70;;;;;;4938731;29;20545;-75
2022/05/18 08:35:09;;;;;;;8.17;3.10;;;25.80;29.90;;;;;;4938055;29;20922;-74
2022/05/18 08:37:39;;;;;;;7.43;3.80;;;25.70;30.40;;;;;;4937668;29;20460;-74
2022/05/18 08:40:08;;;;;;;4.90;3.10;;;25.70;30.30;;;;;;4937500;29;20458;-75
2022/05/18 08:42:35;;;;;;;6.20;3.67;;;25.60;30.00;;;;;;4938168;29;20523;-76
2022/05/18 08:45:03;;;;;;;3.40;3.10;;;25.90;28.90;;;;;;4938066;29;20434;-75
2022/05/18 08:47:39;;;;;;;3.93;3.13;;;26.10;28.60;;;;;;4939022;29;20464;-75
2022/05/18 08:50:12;;;;;;;3.27;2.80;;;26.30;28.40;;;;;;4938767;29;20556;-75
2022/05/18 08:52:58;;;;;;;3.47;3.00;;;26.40;28.30;;;;;;4937315;29;20436;-76
2022/05/18 08:55:46;;;;;;;4.30;3.03;;;26.30;28.20;;;;;;4938518;29;20924;-75
2022/05/18 08:58:20;;;;;;;20.20;4.93;;;26.50;28.10;;;;;;4939469;29;20543;-75
2022/05/18 09:00:54;;;;;;;15.13;4.20;;;26.80;27.10;;;;;;4938933;29;20493;-75
2022/05/18 09:03:24;;;;;;;6.10;2.90;;;26.50;27.10;;;;;;4939227;29;20459;-75
2022/05/18 09:06:00;;;;;;;3.30;3.07;;;26.50;26.90;;;;;;4939683;29;20476;-75
2022/05/18 09:08:30;;;;;;;8.33;3.23;;;26.40;26.60;;;;;;4941134;29;20442;-75
2022/05/18 09:11:03;;;;;;;6.10;3.33;;;26.60;25.70;;;;;;4938343;29;20493;-75
2022/05/18 09:13:30;;;;;;;7.63;3.30;;;26.30;27.10;;;;;;4938089;29;20487;-75
2022/05/18 09:16:10;;;;;;;5.03;3.37;;;26.40;27.20;;;;;;4937779;29;20521;-75
2022/05/18 09:18:45;;;;;;;2.83;2.57;;;26.40;26.70;;;;;;4939205;29;20465;-74
2022/05/18 09:21:21;;;;;;;3.97;3.20;;;26.60;25.80;;;;;;4937481;29;20971;-75
2022/05/18 09:23:58;;;;;;;4.00;2.87;;;26.80;26.40;;;;;;4937386;29;20472;-74
2022/05/18 09:27:04;;;;;;;3.90;3.10;;;27.00;26.80;;;;;;4938367;29;20475;-75
2022/05/18 09:29:39;;;;;;;4.80;3.17;;;27.00;26.90;;;;;;4938540;29;20472;-75
2022/05/18 09:32:39;;;;;;;4.40;3.20;;;26.90;25.70;;;;;;4939433;29;20536;-75
2022/05/18 09:35:27;;;;;;;5.87;3.33;;;27.10;26.90;;;;;;4939402;29;20453;-74
2022/05/18 09:38:00;;;;;;;5.47;3.53;;;27.30;26.60;;;;;;4937422;29;20469;-75
2022/05/18 09:40:30;;;;;;;3.67;3.20;;;27.40;26.60;;;;;;4938586;29;20459;-75
2022/05/18 09:43:05;;;;;;;5.40;3.13;;;27.40;26.90;;;;;;4937050;29;20462;-75
2022/05/18 09:45:35;;;;;;;3.67;3.30;;;26.90;27.80;;;;;;4937962;29;20548;-74
2022/05/18 09:48:07;;;;;;;4.40;3.23;;;27.20;27.60;;;;;;4940842;29;20436;-75
2022/05/18 09:50:37;;;;;;;5.17;3.30;;;27.30;26.90;;;;;;4941771;29;20458;-76
2022/05/18 09:53:06;;;;;;;7.83;3.27;;;27.30;26.10;;;;;;4944042;29;20579;-75
2022/05/18 09:55:33;;;;;;;10.03;3.20;;;27.50;24.40;;;;;;4939990;29;20464;-75
2022/05/18 09:58:04;;;;;;;5.23;2.60;;;27.50;23.90;;;;;;4940749;29;20799;-75
2022/05/18 10:00:33;;;;;;;4.33;2.80;;;27.20;25.50;;;;;;4936422;29;20531;-75
2022/05/18 10:08:48;;;;;;;5.70;2.57;;;28.10;22.70;;;;;;4955403;29;20437;-75
2022/05/18 10:11:17;;;;;;;3.37;2.40;;;27.60;24.20;;;;;;4951659;29;21081;-77
2022/05/18 10:14:00;;;;;;;6.50;2.90;;;27.50;23.10;;;;;;4937500;29;20480;-74
2022/05/18 10:16:37;;;;;;;9.63;3.17;;;27.50;24.00;;;;;;4936539;29;20895;-79
2022/05/18 10:19:05;;;;;;;6.23;2.73;;;27.70;23.40;;;;;;4936170;29;20564;-74
2022/05/18 10:21:36;;;;;;;3.30;2.70;;;27.70;23.00;;;;;;4937166;29;20483;-75
2022/05/18 10:24:07;;;;;;;5.90;2.50;;;27.40;23.40;;;;;;4936937;29;20751;-75
2022/05/18 10:26:38;;;;;;;5.17;2.80;;;27.60;23.10;;;;;;4937841;29;20492;-75
2022/05/18 10:29:07;;;;;;;3.17;2.33;;;27.70;22.80;;;;;;4936630;29;20958;-73
2022/05/18 10:31:37;;;;;;;3.23;2.60;;;27.60;23.10;;;;;;4936043;29;20579;-73
2022/05/18 10:34:25;;;;;;;8.17;2.80;;;27.50;23.70;;;;;;4935733;29;20880;-75
2022/05/18 10:36:54;;;;;;;2.70;1.93;;;27.70;22.10;;;;;;4935634;29;20532;-75
2022/05/18 10:39:37;;;;;;;4.00;2.30;;;27.80;21.60;;;;;;4935549;29;20601;-74
2022/05/18 10:42:25;;;;;;;5.40;1.90;;;27.80;21.50;;;;;;4935353;29;20451;-74
2022/05/18 10:44:54;;;;;;;4.07;2.00;;;27.90;21.40;;;;;;4934548;29;20797;-74
2022/05/18 10:47:29;;;;;;;2.73;2.10;;;27.90;20.90;;;;;;4936244;29;20481;-74
2022/05/18 10:50:25;;;;;;;6.80;2.50;;;28.00;20.70;;;;;;4936127;29;20934;-75
2022/05/18 10:52:54;;;;;;;2.00;1.90;;;28.20;19.80;;;;;;4936722;29;20471;-74
2022/05/18 10:55:26;;;;;;;6.17;2.80;;;28.00;20.30;;;;;;4936128;29;20436;-75
2022/05/18 10:57:58;;;;;;;2.40;2.07;;;28.20;20.60;;;;;;4935739;29;20446;-75
2022/05/18 11:00:32;;;;;;;2.83;2.37;;;28.50;19.30;;;;;;4934963;29;20496;-74
2022/05/18 11:03:07;;;;;;;3.57;2.00;;;28.80;18.90;;;;;;4935135;29;20796;-75
2022/05/18 11:05:40;;;;;;;19.13;3.80;;;28.90;19.70;;;;;;4935385;29;20910;-72
2022/05/18 11:08:13;;;;;;;41.73;5.40;;;28.50;21.80;;;;;;4935421;29;20466;-74
2022/05/18 11:10:50;;;;;;;41.80;6.00;;;28.20;22.60;;;;;;4935590;29;20481;-74
2022/05/18 11:13:31;;;;;;;16.93;3.40;;;27.90;22.80;;;;;;4936351;29;20560;-75
2022/05/18 11:16:09;;;;;;;17.70;3.83;;;28.10;22.70;;;;;;4935997;29;20540;-74
2022/05/18 11:18:53;;;;;;;8.70;3.07;;;28.20;22.20;;;;;;4937078;29;20440;-74
2022/05/18 11:21:28;;;;;;;4.83;3.00;;;28.10;22.10;;;;;;4937224;29;20773;-74
2022/05/18 11:24:06;;;;;;;3.73;2.83;;;28.20;21.80;;;;;;4940654;29;20492;-75
2022/05/18 11:26:42;;;;;;;22.73;3.97;;;28.10;22.00;;;;;;4939043;29;20954;-75
2022/05/18 11:29:22;;;;;;;5.63;2.70;;;28.00;21.80;;;;;;4934508;29;20489;-75
2022/05/18 11:32:04;;;;;;;7.43;2.70;;;28.20;21.80;;;;;;4934733;29;20498;-75
2022/05/18 11:34:42;;;;;;;2.67;2.47;;;28.70;21.00;;;;;;4935255;29;20462;-74
2022/05/18 11:37:47;;;;;;;6.47;2.47;;;28.90;21.00;;;;;;4935099;29;20543;-74
2022/05/18 11:40:24;;;;;;;3.03;2.77;;;28.80;20.70;;;;;;4924256;29;21015;-74
2022/05/18 11:45:54;;;;;;;2.40;2.20;;;28.60;21.20;;;;;;4934339;29;20928;-74
2022/05/18 11:48:29;;;;;;;4.80;3.10;;;28.40;20.90;;;;;;4934711;29;20453;-74
2022/05/18 11:51:05;;;;;;;2.50;2.30;;;28.60;20.40;;;;;;4933978;29;20476;-74
2022/05/18 11:53:45;;;;;;;2.67;2.43;;;28.60;19.50;;;;;;4936383;29;20538;-75
2022/05/18 11:56:30;;;;;;;5.47;2.27;;;28.40;19.70;;;;;;4938450;29;20460;-75
2022/05/18 11:59:30;;;;;;;3.67;2.90;;;28.50;19.70;;;;;;4939513;29;20463;-74
2022/05/18 12:02:13;;;;;;;2.50;2.30;;;28.90;19.20;;;;;;4938708;29;20461;-74
2022/05/18 12:05:07;;;;;;;2.57;2.30;;;29.30;18.60;;;;;;4939202;29;20447;-75
2022/05/18 12:07:49;;;;;;;5.60;2.83;;;29.10;19.30;;;;;;4938280;29;20458;-74
2022/05/18 12:10:25;;;;;;;3.30;2.50;;;28.70;19.50;;;;;;4939759;29;20596;-75
2022/05/18 12:12:59;;;;;;;3.00;2.50;;;29.00;19.60;;;;;;4942334;29;20494;-74
2022/05/18 12:15:39;;;;;;;3.13;2.50;;;28.60;19.20;;;;;;4940409;29;20488;-74
2022/05/18 12:18:12;;;;;;;3.30;2.67;;;28.30;19.90;;;;;;4940153;29;20950;-74
2022/05/18 12:20:47;;;;;;;4.30;2.30;;;28.30;19.90;;;;;;4943460;29;20781;-74
2022/05/18 12:23:18;;;;;;;2.67;2.47;;;28.50;19.10;;;;;;4958116;29;20547;-74
2022/05/18 12:25:45;;;;;;;5.57;2.30;;;28.40;18.90;;;;;;4956688;29;20486;-74
2022/05/18 12:28:14;;;;;;;3.13;2.40;;;28.30;20.30;;;;;;4956340;28;20475;-74
2022/05/18 12:30:44;;;;;;;5.00;2.47;;;28.40;19.40;;;;;;4954712;29;20477;-74
2022/05/18 12:33:13;;;;;;;2.50;2.30;;;28.70;19.30;;;;;;4938779;29;20583;-75
2022/05/18 12:35:50;;;;;;;3.53;2.30;;;28.80;19.00;;;;;;4938882;29;20483;-75
2022/05/18 12:38:24;;;;;;;6.80;2.23;;;28.70;19.00;;;;;;4943994;29;21006;-75
2022/05/18 12:40:56;;;;;;;5.17;2.63;;;28.70;18.90;;;;;;4944139;29;20617;-74
2022/05/18 12:43:32;;;;;;;8.27;3.13;;;28.90;18.30;;;;;;4940739;29;20446;-74
2022/05/18 12:46:03;;;;;;;3.77;2.23;;;29.10;18.00;;;;;;4938358;29;20559;-74
2022/05/18 12:48:37;;;;;;;3.03;2.10;;;29.10;18.00;;;;;;4937370;29;21027;-73
2022/05/18 12:51:12;;;;;;;6.10;2.40;;;29.30;18.10;;;;;;4938565;29;20456;-74
2022/05/18 12:53:53;;;;;;;6.70;1.93;;;29.30;18.10;;;;;;4937738;29;20547;-75
2022/05/18 12:56:23;;;;;;;5.10;3.07;;;28.90;17.90;;;;;;4937700;29;20459;-74
2022/05/18 12:58:55;;;;;;;3.43;2.07;;;28.70;17.80;;;;;;4937570;29;20577;-75
2022/05/18 13:01:25;;;;;;;4.10;1.80;;;28.90;17.90;;;;;;4937115;29;20946;-74
2022/05/18 13:04:00;;;;;;;4.13;2.17;;;29.20;18.10;;;;;;4937415;29;20862;-74
2022/05/18 13:06:45;;;;;;;2.50;2.13;;;29.30;18.10;;;;;;4937653;29;21070;-75
2022/05/18 13:09:36;;;;;;;3.23;2.33;;;28.90;17.90;;;;;;4937964;29;20483;-74
2022/05/18 13:12:38;;;;;;;4.33;2.73;;;28.90;17.90;;;;;;4932397;29;20501;-74
2022/05/18 13:15:16;;;;;;;6.77;2.73;;;29.10;18.00;;;;;;4937974;29;20445;-74
2022/05/18 13:17:51;;;;;;;2.97;2.10;;;29.60;17.70;;;;;;4938361;29;20509;-74
2022/05/18 13:20:42;;;;;;;3.23;2.27;;;29.60;17.40;;;;;;4938114;29;20483;-74
2022/05/18 13:23:39;;;;;;;2.13;1.93;;;29.90;17.00;;;;;;4937977;29;20576;-75